Time;durP1;ratioP1;P1;durP2;ratioP2;P2;SDS_P1;SDS_P2;PMS_P1;PMS_P2;Temp;Humidity;BMP_temperature;BMP_pressure;BME280_temperature;BME280_humidity;BME280_pressure;Samples;Min_cycle;Max_cycle;Signal;HPM_P1;HPM_P2
2022/09/11 00:01:17;;;;;;;45.15;28.33;;;;;;;12.73;100.00;101553.75;4987907;28;20060;-91
2022/09/11 00:03:44;;;;;;;49.97;29.50;;;;;;;12.70;100.00;101552.94;4988758;28;20399;-89
2022/09/11 00:06:13;;;;;;;46.90;28.67;;;;;;;12.70;100.00;101560.94;4986293;28;20042;-89
2022/09/11 00:08:40;;;;;;;54.53;29.30;;;;;;;12.64;100.00;101550.56;4974956;28;20019;-90
2022/09/11 00:11:09;;;;;;;51.78;31.00;;;;;;;12.68;100.00;101553.97;4989619;28;20026;-90
2022/09/11 00:13:36;;;;;;;51.30;29.65;;;;;;;12.66;100.00;101559.38;4987984;28;20023;-89
2022/09/11 00:16:05;;;;;;;53.30;29.63;;;;;;;12.60;100.00;101550.81;4987569;28;20038;-90
2022/09/11 00:18:34;;;;;;;50.97;30.40;;;;;;;12.56;100.00;101549.22;4987565;28;20037;-90
2022/09/11 00:21:01;;;;;;;45.95;28.90;;;;;;;12.54;100.00;101557.31;4990759;28;20022;-89
2022/09/11 00:23:27;;;;;;;46.88;29.83;;;;;;;12.52;100.00;101556.50;4979957;28;20129;-89
2022/09/11 00:25:52;;;;;;;47.75;29.95;;;;;;;12.44;100.00;101548.84;4969478;28;20498;-90
2022/09/11 00:28:20;;;;;;;50.72;29.00;;;;;;;12.52;100.00;101571.66;4965511;28;20788;-90
2022/09/11 00:30:55;;;;;;;52.30;30.13;;;;;;;12.50;100.00;101571.75;4969357;28;20030;-90
2022/09/11 00:33:20;;;;;;;47.35;29.80;;;;;;;12.48;100.00;101570.06;4966137;28;20484;-90
2022/09/11 00:35:53;;;;;;;48.38;28.95;;;;;;;12.45;100.00;101568.41;4962207;28;20109;-91
2022/09/11 00:38:19;;;;;;;46.33;28.40;;;;;;;12.41;100.00;101564.16;4960549;28;20134;-90
2022/09/11 00:40:46;;;;;;;45.40;29.02;;;;;;;12.36;100.00;101571.50;4983040;28;20555;-90
2022/09/11 00:43:16;;;;;;;44.47;28.58;;;;;;;12.36;100.00;101572.38;4962593;28;20038;-90
2022/09/11 00:45:43;;;;;;;50.50;29.80;;;;;;;12.38;100.00;101570.50;4964318;28;20041;-92
2022/09/11 00:48:13;;;;;;;51.13;30.17;;;;;;;12.34;100.00;101560.91;4966697;28;20042;-90
2022/09/11 00:50:42;;;;;;;50.13;30.58;;;;;;;12.40;100.00;101571.28;4969086;28;20034;-90
2022/09/11 00:53:10;;;;;;;50.33;29.42;;;;;;;12.44;100.00;101580.88;4963517;28;20168;-92
2022/09/11 00:55:40;;;;;;;51.45;32.10;;;;;;;12.46;100.00;101587.03;4963309;28;20027;-90
2022/09/11 00:58:14;;;;;;;57.03;33.30;;;;;;;12.46;100.00;101588.84;4975849;28;20050;-90
2022/09/11 01:00:43;;;;;;;62.17;34.08;;;;;;;12.47;100.00;101579.88;4955634;28;20055;-91
2022/09/11 01:03:08;;;;;;;53.83;32.78;;;;;;;12.44;100.00;101580.88;4966371;28;20034;-89
2022/09/11 01:05:36;;;;;;;58.38;33.95;;;;;;;12.46;100.00;101578.16;4966864;28;20027;-90
2022/09/11 01:08:02;;;;;;;56.90;34.63;;;;;;;12.43;100.00;101584.50;4967292;28;20497;-89
2022/09/11 01:10:42;;;;;;;62.25;35.60;;;;;;;12.32;100.00;101570.78;4961662;28;20049;-93
2022/09/11 01:13:51;;;;;;;62.80;34.58;;;;;;;12.38;100.00;101591.88;4966592;28;20030;-90
2022/09/11 01:16:40;;;;;;;56.08;32.35;;;;;;;12.36;100.00;101591.06;4931265;28;20047;-91
2022/09/11 01:19:36;;;;;;;63.25;34.30;;;;;;;12.34;100.00;101592.94;4965716;28;20062;-92
2022/09/11 01:22:30;;;;;;;62.10;34.92;;;;;;;12.33;100.00;101591.22;4965252;28;20424;-91
2022/09/11 01:25:07;;;;;;;58.10;35.10;;;;;;;12.33;100.00;101591.22;4967352;28;20031;-92
2022/09/11 01:27:47;;;;;;;63.95;35.13;;;;;;;12.31;100.00;101594.88;4967818;28;20038;-90
2022/09/11 01:30:27;;;;;;;60.80;35.10;;;;;;;12.28;100.00;101590.53;4968672;28;20109;-91
2022/09/11 01:33:11;;;;;;;59.45;34.40;;;;;;;12.25;100.00;101606.72;4954857;28;20035;-91
2022/09/11 01:35:57;;;;;;;61.20;35.05;;;;;;;12.23;100.00;101599.72;4964365;28;20105;-91
2022/09/11 01:38:33;;;;;;;63.85;35.60;;;;;;;12.17;100.00;101590.19;4966469;28;20114;-90
2022/09/11 01:41:06;;;;;;;59.85;34.65;;;;;;;12.11;100.00;101595.78;4960085;28;20031;-92
2022/09/11 01:43:39;;;;;;;60.72;34.22;;;;;;;12.16;100.00;101602.66;4961445;28;20058;-89
2022/09/11 01:46:06;;;;;;;63.22;34.33;;;;;;;12.06;100.00;101585.31;4966636;28;20051;-91
2022/09/11 01:48:39;;;;;;;56.92;34.05;;;;;;;12.12;100.00;101610.84;4967627;28;20102;-89
2022/09/11 01:51:08;;;;;;;59.25;34.47;;;;;;;12.03;100.00;101598.78;4963879;28;20034;-88
2022/09/11 01:53:37;;;;;;;61.75;34.63;;;;;;;12.04;100.00;101610.34;4961903;28;20019;-90
2022/09/11 01:56:15;;;;;;;55.10;32.85;;;;;;;12.04;100.00;101613.00;4965507;28;20094;-89
2022/09/11 01:58:44;;;;;;;54.28;32.60;;;;;;;11.97;100.00;101609.75;4964932;28;20129;-89
2022/09/11 02:01:20;;;;;;;52.65;31.15;;;;;;;11.86;100.00;101598.69;4970123;28;20035;-89
2022/09/11 02:04:23;;;;;;;49.80;31.95;;;;;;;11.87;100.00;101606.66;4966528;28;20122;-88
2022/09/11 02:06:58;;;;;;;51.38;32.42;;;;;;;11.84;100.00;101601.44;4967963;28;20051;-89
2022/09/11 02:09:30;;;;;;;50.83;31.63;;;;;;;11.82;100.00;101610.38;4970405;28;20037;-89
2022/09/11 02:12:01;;;;;;;49.05;31.42;;;;;;;11.78;100.00;101606.13;4965777;28;20416;-89
2022/09/11 02:14:35;;;;;;;50.70;31.10;;;;;;;11.76;100.00;101614.19;4969041;28;20019;-89
2022/09/11 02:17:13;;;;;;;50.03;30.58;;;;;;;11.73;100.00;101619.66;4969659;28;20035;-89
2022/09/11 02:19:39;;;;;;;47.72;28.23;;;;;;;11.69;100.00;101621.59;4970690;28;20034;-88
2022/09/11 02:22:06;;;;;;;45.80;27.65;;;;;;;11.70;100.00;101617.13;4970020;28;20365;-88
2022/09/11 02:24:32;;;;;;;44.05;28.13;;;;;;;11.65;100.00;101609.31;4967831;28;20462;-89
2022/09/11 02:27:02;;;;;;;42.85;27.80;;;;;;;11.64;100.00;101620.94;4964134;28;20039;-88
2022/09/11 02:29:28;;;;;;;47.28;28.27;;;;;;;11.61;100.00;101623.72;4971075;28;20050;-88
2022/09/11 02:31:53;;;;;;;46.63;28.50;;;;;;;11.57;100.00;101619.44;4967940;28;20036;-88
2022/09/11 02:34:26;;;;;;;44.72;29.05;;;;;;;11.53;100.00;101622.31;4969214;28;20455;-89
2022/09/11 02:37:13;;;;;;;42.70;28.67;;;;;;;11.55;100.00;101633.78;4969388;28;20039;-89
2022/09/11 02:39:56;;;;;;;49.95;30.45;;;;;;;11.54;100.00;101630.25;4967682;28;20135;-90
2022/09/11 02:42:43;;;;;;;55.38;33.08;;;;;;;11.52;100.00;101621.44;4971027;28;20034;-90
2022/09/11 02:45:34;;;;;;;57.50;33.33;;;;;;;11.46;100.00;101632.38;4969068;28;20443;-88
2022/09/11 02:48:37;;;;;;;67.70;37.50;;;;;;;11.44;100.00;101632.44;4967653;28;20039;-90
2022/09/11 02:51:37;;;;;;;55.58;33.28;;;;;;;11.44;100.00;101631.56;4969645;28;20042;-89
2022/09/11 02:54:08;;;;;;;55.95;33.83;;;;;;;11.42;100.00;101628.13;4967339;28;20157;-90
2022/09/11 02:57:00;;;;;;;56.47;33.20;;;;;;;11.42;100.00;101631.66;4971099;28;20027;-90
2022/09/11 02:59:41;;;;;;;53.53;33.20;;;;;;;11.37;100.00;101630.06;4968429;28;20044;-89
2022/09/11 03:02:13;;;;;;;57.47;32.58;;;;;;;11.32;100.00;101629.41;4948700;28;20484;-88
2022/09/11 03:04:38;;;;;;;57.47;32.00;;;;;;;11.37;100.00;101638.06;4972265;28;20041;-89
2022/09/11 03:07:05;;;;;;;57.83;33.97;;;;;;;11.28;100.00;101627.81;4957956;28;20514;-91
2022/09/11 03:09:30;;;;;;;55.67;31.48;;;;;;;11.29;100.00;101635.75;4957023;28;20030;-90
2022/09/11 03:11:55;;;;;;;57.97;33.78;;;;;;;11.27;100.00;101634.94;4973074;28;20042;-89
2022/09/11 03:14:21;;;;;;;56.90;32.78;;;;;;;11.23;100.00;101638.66;4970934;28;20030;-90
2022/09/11 03:16:46;;;;;;;56.95;32.38;;;;;;;11.24;100.00;101643.03;4972007;28;20623;-90
2022/09/11 03:19:11;;;;;;;49.85;30.33;;;;;;;11.23;100.00;101633.31;4974713;28;20086;-90
2022/09/11 03:21:37;;;;;;;51.35;31.30;;;;;;;11.21;100.00;101632.53;4965728;28;20029;-89
2022/09/11 03:24:03;;;;;;;53.60;31.70;;;;;;;11.22;100.00;101634.25;4984554;28;20085;-91
2022/09/11 03:26:30;;;;;;;49.15;30.40;;;;;;;11.16;100.00;101629.16;4985388;28;20412;-91
2022/09/11 03:28:55;;;;;;;48.83;29.35;;;;;;;11.19;100.00;101637.03;4978012;28;20038;-90
2022/09/11 03:31:21;;;;;;;46.70;29.45;;;;;;;11.15;100.00;101635.44;4981892;28;20397;-89
2022/09/11 03:33:46;;;;;;;47.33;29.40;;;;;;;11.11;100.00;101637.34;4987088;28;20027;-91
2022/09/11 03:36:11;;;;;;;56.42;30.50;;;;;;;11.10;100.00;101640.94;4982664;28;20051;-90
2022/09/11 03:38:37;;;;;;;65.55;30.60;;;;;;;11.07;100.00;101632.22;4984414;28;20050;-91
2022/09/11 03:41:02;;;;;;;44.17;29.50;;;;;;;11.02;100.00;101631.53;4984154;28;20031;-90
2022/09/11 03:43:29;;;;;;;42.90;28.25;;;;;;;11.05;100.00;101648.25;4982782;28;20027;-91
2022/09/11 03:45:55;;;;;;;43.80;30.00;;;;;;;11.05;100.00;101637.59;4971108;28;20477;-90
2022/09/11 03:48:20;;;;;;;38.35;26.88;;;;;;;11.08;100.00;101650.81;4968801;28;20209;-89
2022/09/11 03:50:46;;;;;;;44.03;28.23;;;;;;;11.10;100.00;101648.94;4964906;28;20106;-90
2022/09/11 03:53:11;;;;;;;48.10;29.70;;;;;;;11.12;100.00;101640.88;4951042;28;20488;-90
2022/09/11 03:55:37;;;;;;;48.47;29.88;;;;;;;11.10;100.00;101634.75;4955415;28;20114;-90
2022/09/11 03:58:03;;;;;;;58.28;29.75;;;;;;;11.16;100.00;101645.16;4965731;28;20038;-90
2022/09/11 04:00:28;;;;;;;76.00;35.97;;;;;;;11.20;100.00;101644.09;4970402;28;20031;-91
2022/09/11 04:02:57;;;;;;;87.88;37.30;;;;;;;11.23;100.00;101650.19;4969867;28;20035;-90
2022/09/11 04:05:24;;;;;;;101.70;37.70;;;;;;;11.29;100.00;101651.75;4955106;28;20113;-90
2022/09/11 04:07:54;;;;;;;100.03;38.95;;;;;;;11.27;100.00;101647.41;4946955;29;20053;-90
2022/09/11 04:10:20;;;;;;;118.63;39.83;;;;;;;11.35;100.00;101658.59;4963887;28;20031;-90
2022/09/11 04:12:48;;;;;;;94.95;38.08;;;;;;;11.38;100.00;101655.81;4968632;28;20483;-90
2022/09/11 04:15:14;;;;;;;124.63;39.13;;;;;;;11.35;100.00;101653.28;4942291;28;20027;-90
2022/09/11 04:17:40;;;;;;;186.90;40.47;;;;;;;11.32;100.00;101650.72;4966566;28;20081;-90
2022/09/11 04:20:06;;;;;;;119.97;40.40;;;;;;;11.28;100.00;101644.66;4964933;28;20473;-90
2022/09/11 04:22:31;;;;;;;103.13;37.92;;;;;;;11.32;100.00;101640.06;4960688;28;20512;-90
2022/09/11 04:24:56;;;;;;;126.47;41.13;;;;;;;11.33;100.00;101641.78;4964432;28;20029;-91
2022/09/11 04:27:23;;;;;;;110.65;37.85;;;;;;;11.34;100.00;101646.22;4958862;28;20106;-89
2022/09/11 04:29:48;;;;;;;104.03;38.53;;;;;;;11.36;100.00;101642.53;4961889;28;20031;-93
2022/09/11 04:32:14;;;;;;;115.47;38.88;;;;;;;11.39;100.00;101641.56;4961606;28;20062;-91
2022/09/11 04:34:40;;;;;;;108.93;38.70;;;;;;;11.39;100.00;101646.88;4945563;28;20404;-90
2022/09/11 04:37:05;;;;;;;125.82;38.80;;;;;;;11.37;100.00;101649.63;4961906;28;20053;-90
2022/09/11 04:39:31;;;;;;;99.85;37.15;;;;;;;11.41;100.00;101645.00;4965206;28;20448;-91
2022/09/11 04:41:56;;;;;;;130.50;37.50;;;;;;;11.39;100.00;101650.41;4941953;28;20027;-91
2022/09/11 04:44:25;;;;;;;84.78;35.85;;;;;;;11.38;100.00;101655.81;4966868;28;20449;-89
2022/09/11 04:46:50;;;;;;;114.72;37.70;;;;;;;11.39;100.00;101653.09;4949477;28;20074;-91
2022/09/11 04:49:15;;;;;;;87.82;34.20;;;;;;;11.36;100.00;101653.19;4969592;28;20489;-90
2022/09/11 04:51:41;;;;;;;84.25;34.13;;;;;;;11.36;100.00;101658.53;4954045;28;20027;-89
2022/09/11 04:54:11;;;;;;;97.50;35.70;;;;;;;11.37;100.00;101657.63;4967520;28;20030;-89
2022/09/11 04:56:37;;;;;;;115.63;36.33;;;;;;;11.32;100.00;101658.72;4955052;28;20023;-89
2022/09/11 04:59:05;;;;;;;93.30;35.17;;;;;;;11.34;100.00;101659.56;4968665;28;20393;-90
2022/09/11 05:01:32;;;;;;;94.68;33.17;;;;;;;11.29;100.00;101649.06;4961757;28;20035;-88
2022/09/11 05:04:00;;;;;;;82.75;34.63;;;;;;;11.31;100.00;101660.53;4942938;29;20031;-90
2022/09/11 05:06:26;;;;;;;103.10;34.53;;;;;;;11.19;100.00;101655.69;4967901;28;20023;-89
2022/09/11 05:08:52;;;;;;;101.68;34.25;;;;;;;11.21;100.00;101665.38;4968116;28;20038;-89
2022/09/11 05:11:19;;;;;;;115.90;34.60;;;;;;;11.13;100.00;101650.63;4968400;28;20388;-90
2022/09/11 05:13:45;;;;;;;73.68;32.42;;;;;;;11.15;100.00;101652.28;4967208;28;20027;-89
2022/09/11 05:16:13;;;;;;;74.47;33.15;;;;;;;11.14;100.00;101660.34;4968614;28;20030;-89
2022/09/11 05:18:40;;;;;;;76.57;33.17;;;;;;;11.20;100.00;101684.97;4951445;28;20114;-88
2022/09/11 05:21:15;;;;;;;64.07;31.55;;;;;;;11.24;100.00;101691.00;4968593;28;20437;-89
2022/09/11 05:23:41;;;;;;;75.75;32.85;;;;;;;11.21;100.00;101683.16;4965867;28;20023;-90
2022/09/11 05:26:13;;;;;;;62.90;31.58;;;;;;;11.21;100.00;101683.16;4943551;29;20023;-89
2022/09/11 05:28:38;;;;;;;77.15;32.00;;;;;;;11.20;100.00;101694.72;4963766;28;20105;-88
2022/09/11 05:31:14;;;;;;;64.35;30.75;;;;;;;11.18;100.00;101688.59;4972407;28;20066;-89
2022/09/11 05:33:39;;;;;;;60.38;31.20;;;;;;;11.16;100.00;101682.47;4952173;28;20122;-89
2022/09/11 05:36:05;;;;;;;59.30;31.17;;;;;;;11.26;100.00;101704.28;4968931;28;20450;-88
2022/09/11 05:38:32;;;;;;;60.20;31.77;;;;;;;11.23;100.00;101708.81;4972064;28;20059;-91
2022/09/11 05:40:58;;;;;;;54.22;31.83;;;;;;;11.25;100.00;101711.44;4957747;28;20065;-88
2022/09/11 05:43:23;;;;;;;63.17;32.15;;;;;;;11.32;100.00;101715.56;4968971;28;20050;-88
2022/09/11 05:45:56;;;;;;;66.78;32.40;;;;;;;11.39;100.00;101725.06;4974390;28;20019;-89
2022/09/11 05:48:22;;;;;;;65.03;33.22;;;;;;;11.42;100.00;101724.94;4971633;28;20105;-88
2022/09/11 05:50:52;;;;;;;76.00;33.85;;;;;;;11.51;100.00;101733.50;4973211;28;20031;-89
2022/09/11 05:53:17;;;;;;;74.60;33.67;;;;;;;11.51;100.00;101729.03;4969221;28;20480;-88
2022/09/11 05:55:42;;;;;;;72.72;34.60;;;;;;;11.55;100.00;101727.97;4974067;28;20098;-88
2022/09/11 05:58:08;;;;;;;62.95;33.00;;;;;;;11.66;100.00;101733.75;4971004;28;20046;-88
2022/09/11 06:00:33;;;;;;;88.88;36.60;;;;;;;11.66;100.00;101725.75;4969652;28;20077;-88
2022/09/11 06:02:58;;;;;;;85.80;35.00;;;;;;;11.79;100.00;101735.88;4968626;28;20100;-89
2022/09/11 06:05:24;;;;;;;89.95;36.15;;;;;;;11.79;100.00;101730.53;4973979;28;20026;-87
2022/09/11 06:07:50;;;;;;;82.57;35.28;;;;;;;11.89;100.00;101742.59;4968952;28;20026;-90
2022/09/11 06:10:16;;;;;;;91.05;36.42;;;;;;;11.90;100.00;101737.19;4968186;28;20031;-90
2022/09/11 06:12:41;;;;;;;83.38;37.20;;;;;;;12.02;100.00;101757.16;4968057;28;20044;-90
2022/09/11 06:15:07;;;;;;;84.15;36.90;;;;;;;12.03;100.00;101752.69;4969462;28;20404;-89
2022/09/11 06:17:34;;;;;;;94.68;34.75;;;;;;;12.08;100.00;101754.25;4953817;28;20041;-90
2022/09/11 06:19:59;;;;;;;91.88;34.95;;;;;;;12.04;100.00;101746.41;4971287;28;20103;-88
2022/09/11 06:22:26;;;;;;;99.18;35.78;;;;;;;12.13;100.00;101759.38;4971262;28;20110;-89
2022/09/11 06:24:51;;;;;;;100.32;33.78;;;;;;;12.19;100.00;101761.78;4970368;28;20552;-89
2022/09/11 06:27:17;;;;;;;106.70;32.63;;;;;;;12.23;100.00;101763.38;4973625;28;20469;-88
2022/09/11 06:29:43;;;;;;;129.63;33.33;;;;;;;12.23;100.00;101758.03;4970002;28;20031;-90
2022/09/11 06:32:09;;;;;;;70.47;32.78;;;;;;;12.34;100.00;101763.78;4986886;28;20046;-91
2022/09/11 06:34:35;;;;;;;83.65;33.60;;;;;;;12.49;100.00;101775.59;4991264;28;20045;-87
2022/09/11 06:37:00;;;;;;;93.25;33.35;;;;;;;12.55;100.00;101774.47;4988602;28;20071;-90
2022/09/11 06:39:26;;;;;;;103.72;33.05;;;;;;;12.59;100.00;101776.06;4989391;28;20039;-88
2022/09/11 06:41:52;;;;;;;125.78;33.60;;;;;;;12.57;100.00;101777.94;4991343;28;20033;-88
2022/09/11 06:44:18;;;;;;;174.27;33.90;;;;;;;12.65;100.00;101784.66;4994101;28;20033;-89
2022/09/11 06:46:44;;;;;;;108.28;32.92;;;;;;;12.76;100.00;101780.66;4982123;28;20166;-88
2022/09/11 06:49:10;;;;;;;75.05;32.17;;;;;;;12.88;100.00;101788.13;4991240;28;20027;-87
2022/09/11 06:51:35;;;;;;;82.38;31.85;;;;;;;12.95;100.00;101781.53;4986678;28;20031;-89
2022/09/11 06:54:01;;;;;;;90.57;31.77;;;;;;;12.96;100.00;101786.84;4991593;28;20030;-89
2022/09/11 06:56:28;;;;;;;81.25;30.63;;;;;;;13.00;100.00;101787.56;4986546;28;20035;-83
2022/09/11 06:58:53;;;;;;;98.97;32.25;;;;;;;13.06;100.00;101786.41;4982281;28;20042;-84
2022/09/11 07:01:20;;;;;;;60.15;30.45;;;;;;;13.11;100.00;101777.22;4966730;28;20113;-84
2022/09/11 07:03:48;;;;;;;72.53;31.40;;;;;;;13.24;100.00;101782.03;4986918;28;20031;-84
2022/09/11 07:06:16;;;;;;;75.20;31.95;;;;;;;13.34;100.00;101794.03;4978717;28;20034;-84
2022/09/11 07:08:41;;;;;;;88.97;30.52;;;;;;;13.36;100.00;101793.00;4979394;28;20076;-85
2022/09/11 07:11:08;;;;;;;88.72;30.90;;;;;;;13.34;100.00;101784.22;4988871;28;20190;-85
2022/09/11 07:13:35;;;;;;;69.70;29.88;;;;;;;13.40;100.00;101786.56;4976334;28;20029;-83
2022/09/11 07:16:02;;;;;;;96.18;31.13;;;;;;;13.36;100.00;101789.47;4974052;28;20081;-83
2022/09/11 07:18:35;;;;;;;322.15;38.70;;;;;;;13.30;100.00;101787.09;4968752;28;20023;-82
2022/09/11 07:21:05;;;;;;;129.18;32.10;;;;;;;13.29;100.00;101788.88;4970616;28;20045;-83
2022/09/11 07:23:30;;;;;;;128.93;32.17;;;;;;;13.37;100.00;101792.06;4970961;28;20030;-83
2022/09/11 07:25:56;;;;;;;120.60;30.40;;;;;;;13.44;100.00;101782.81;4970330;28;20049;-83
2022/09/11 07:28:21;;;;;;;102.38;32.72;;;;;;;13.53;100.00;101776.16;4958009;28;20058;-83
2022/09/11 07:30:47;;;;;;;147.20;31.67;;;;;;;13.58;100.00;101781.28;4970792;28;20038;-83
2022/09/11 07:33:12;;;;;;;129.75;34.33;;;;;;;13.60;100.00;101788.31;4953031;28;20033;-82
2022/09/11 07:35:38;;;;;;;159.65;35.97;;;;;;;13.69;100.00;101789.66;4967341;28;20034;-82
2022/09/11 07:38:03;;;;;;;139.13;32.20;;;;;;;13.63;100.00;101779.28;4968544;28;20047;-83
2022/09/11 07:40:28;;;;;;;64.28;30.92;;;;;;;13.70;100.00;101784.22;4953277;28;20378;-83
2022/09/11 07:42:53;;;;;;;101.68;34.20;;;;;;;13.80;100.00;101790.00;4968993;28;20034;-83
2022/09/11 07:45:20;;;;;;;68.25;32.92;;;;;;;13.89;100.00;101794.91;4965455;28;20468;-83
2022/09/11 07:47:45;;;;;;;58.88;30.88;;;;;;;14.02;100.00;101789.81;4963385;28;20027;-82
2022/09/11 07:50:10;;;;;;;41.38;30.65;;;;;;;14.12;100.00;101793.72;4966592;28;20449;-82
2022/09/11 07:52:36;;;;;;;48.00;29.83;;;;;;;14.21;100.00;101792.41;4965698;28;20105;-82
2022/09/11 07:55:02;;;;;;;48.90;30.60;;;;;;;14.30;100.00;101794.63;4968717;28;20030;-82
2022/09/11 07:57:29;;;;;;;51.00;30.27;;;;;;;14.47;100.00;101792.91;4970067;28;20023;-82
2022/09/11 07:59:54;;;;;;;49.42;29.40;;;;;;;14.53;100.00;101790.78;4966702;28;20532;-83
2022/09/11 08:02:21;;;;;;;66.18;29.67;;;;;;;14.45;100.00;101796.50;4966693;28;20115;-82
2022/09/11 08:04:46;;;;;;;42.65;27.45;;;;;;;14.41;100.00;101791.38;4964236;28;20031;-82
2022/09/11 08:07:12;;;;;;;42.40;28.33;;;;;;;14.61;100.00;101804.66;4966680;28;20069;-83
2022/09/11 08:09:38;;;;;;;46.50;28.17;;;;;;;14.81;100.00;101802.72;4968592;28;20080;-83
2022/09/11 08:12:03;;;;;;;42.58;27.88;;;;;;;14.98;100.00;101810.72;4967730;28;20080;-83
2022/09/11 08:14:30;;;;;;;37.15;27.15;;;;;;;15.04;100.00;101806.84;4968768;28;20031;-83
2022/09/11 08:16:55;;;;;;;38.63;26.30;;;;;;;15.11;100.00;101811.78;4967444;28;20031;-82
2022/09/11 08:19:22;;;;;;;45.10;27.50;;;;;;;15.22;100.00;101810.34;4966452;28;20713;-83
2022/09/11 08:21:49;;;;;;;41.22;26.70;;;;;;;15.30;100.00;101818.81;4957855;28;20052;-82
2022/09/11 08:24:16;;;;;;;43.53;28.55;;;;;;;15.43;100.00;101817.22;4955887;28;20039;-83
2022/09/11 08:26:41;;;;;;;43.45;30.73;;;;;;;15.60;100.00;101810.91;4964667;28;20110;-83
2022/09/11 08:29:07;;;;;;;40.45;27.90;;;;;;;15.81;100.00;101817.75;4951737;28;20126;-83
2022/09/11 08:31:35;;;;;;;39.05;26.90;;;;;;;15.96;100.00;101823.19;4965128;28;20037;-83
2022/09/11 08:34:00;;;;;;;36.80;27.83;;;;;;;16.03;100.00;101822.75;4966608;28;20022;-83
2022/09/11 08:36:26;;;;;;;38.97;28.17;;;;;;;16.17;100.00;101832.66;4968784;28;20038;-83
2022/09/11 08:38:52;;;;;;;37.67;27.08;;;;;;;16.29;100.00;101831.09;4967625;28;20057;-83
2022/09/11 08:41:28;;;;;;;40.15;27.85;;;;;;;16.32;100.00;101831.78;4964941;28;20038;-83
2022/09/11 08:44:02;;;;;;;41.50;28.55;;;;;;;16.62;100.00;101834.44;4966332;28;20129;-83
2022/09/11 08:47:09;;;;;;;41.35;28.52;;;;;;;16.90;100.00;101828.28;4949242;28;20046;-82
2022/09/11 08:49:45;;;;;;;39.88;28.33;;;;;;;17.12;100.00;101837.69;4902236;29;20033;-83
2022/09/11 08:52:13;;;;;;;38.65;28.42;;;;;;;17.38;98.61;101846.81;4888381;29;20072;-83
2022/09/11 08:54:40;;;;;;;39.78;28.63;;;;;;;17.53;95.93;101842.28;4886353;29;20067;-83
2022/09/11 08:57:05;;;;;;;34.88;27.08;;;;;;;17.54;96.38;101844.00;4883503;29;20064;-83
2022/09/11 08:59:56;;;;;;;35.67;26.35;;;;;;;17.33;98.58;101848.94;4881801;29;20068;-83
2022/09/11 09:02:45;;;;;;;37.92;28.08;;;;;;;17.45;100.00;101839.22;4896470;29;20104;-83
2022/09/11 09:05:36;;;;;;;38.72;29.63;;;;;;;17.60;98.21;101849.03;4893823;29;20040;-84
2022/09/11 09:08:14;;;;;;;37.50;27.92;;;;;;;17.67;96.55;101853.03;4887185;29;20091;-82
2022/09/11 09:10:51;;;;;;;35.95;27.73;;;;;;;17.75;97.46;101839.97;4889300;29;20040;-82
2022/09/11 09:13:34;;;;;;;38.72;28.80;;;;;;;17.85;96.84;101843.81;4893368;29;20498;-82
2022/09/11 09:16:50;;;;;;;38.13;29.05;;;;;;;18.12;98.61;101840.22;4901310;29;20043;-82
2022/09/11 09:19:25;;;;;;;41.38;29.25;;;;;;;18.32;93.51;101849.69;4885301;29;20050;-82
2022/09/11 09:22:12;;;;;;;46.95;28.85;;;;;;;18.42;92.42;101848.94;4910905;29;20048;-83
2022/09/11 09:24:43;;;;;;;39.03;29.60;;;;;;;18.48;92.47;101853.06;4915009;29;20040;-85
2022/09/11 09:27:16;;;;;;;41.55;28.65;;;;;;;19.13;90.03;101860.25;4910399;29;20055;-85
2022/09/11 09:29:46;;;;;;;40.80;29.70;;;;;;;19.56;88.15;101862.56;4918642;29;20040;-83
2022/09/11 09:32:19;;;;;;;36.50;28.63;;;;;;;19.67;86.24;101864.53;4926839;29;20039;-88
2022/09/11 09:34:48;;;;;;;37.95;27.75;;;;;;;19.73;84.60;101858.66;4912179;29;20048;-84
2022/09/11 09:37:21;;;;;;;37.15;27.48;;;;;;;20.10;83.92;101864.91;4927488;29;20072;-83
2022/09/11 09:39:47;;;;;;;36.00;28.00;;;;;;;20.63;81.74;101851.91;4922264;29;20029;-81
2022/09/11 09:42:39;;;;;;;34.17;26.02;;;;;;;21.64;82.47;101869.09;4927000;29;20035;-82
2022/09/11 09:45:31;;;;;;;32.90;26.02;;;;;;;22.78;77.61;101862.31;4917376;29;20498;-82
2022/09/11 09:47:57;;;;;;;32.75;26.10;;;;;;;22.68;69.14;101858.69;4912366;29;20537;-82
2022/09/11 09:50:29;;;;;;;34.75;25.42;;;;;;;22.40;73.51;101868.31;4907903;29;20036;-82
2022/09/11 09:53:03;;;;;;;32.27;24.87;;;;;;;22.95;72.48;101863.59;4924391;29;20091;-83
2022/09/11 09:55:30;;;;;;;30.05;23.38;;;;;;;23.08;67.25;101867.00;4954763;29;20422;-82
2022/09/11 09:57:56;;;;;;;32.53;24.25;;;;;;;22.43;68.62;101859.94;4966970;28;20341;-82
2022/09/11 10:00:21;;;;;;;29.33;23.27;;;;;;;21.99;70.95;101862.66;4978429;28;20030;-89
2022/09/11 10:02:56;;;;;;;28.40;21.15;;;;;;;21.68;71.78;101867.00;4980034;28;20472;-83
2022/09/11 10:05:33;;;;;;;25.08;20.45;;;;;;;22.37;73.46;101856.75;4961719;28;20063;-86
2022/09/11 10:08:02;;;;;;;26.52;19.95;;;;;;;24.59;64.58;101852.34;4975207;28;20115;-84
2022/09/11 10:10:36;;;;;;;24.45;18.25;;;;;;;26.80;59.97;101861.38;4969330;28;20030;-82
2022/09/11 10:13:15;;;;;;;23.95;18.58;;;;;;;28.34;52.83;101867.69;4970269;28;20046;-83
2022/09/11 10:15:41;;;;;;;24.38;17.85;;;;;;;29.65;49.05;101863.78;4956817;28;20484;-84
2022/09/11 10:18:31;;;;;;;21.65;17.75;;;;;;;30.39;53.03;101866.06;4966792;28;20078;-85
2022/09/11 10:21:11;;;;;;;23.50;17.25;;;;;;;31.31;52.00;101865.94;4965947;28;20130;-85
2022/09/11 10:23:46;;;;;;;19.88;16.10;;;;;;;32.17;47.01;101862.38;4968108;28;20033;-84
2022/09/11 10:26:17;;;;;;;18.60;16.55;;;;;;;32.77;41.16;101859.34;4965434;28;20081;-88
2022/09/11 10:28:44;;;;;;;19.95;15.10;;;;;;;33.09;37.26;101866.19;4967672;28;20057;-84
2022/09/11 10:31:14;;;;;;;17.73;15.80;;;;;;;33.66;38.70;101865.03;4963515;28;20026;-86
2022/09/11 10:33:44;;;;;;;17.35;15.07;;;;;;;33.84;35.63;101865.31;4966204;28;20544;-85
2022/09/11 10:36:11;;;;;;;17.85;14.52;;;;;;;34.04;34.54;101859.03;4955737;28;20113;-85
2022/09/11 10:38:45;;;;;;;17.63;14.95;;;;;;;33.76;33.79;101859.97;4965006;28;20053;-85
2022/09/11 10:41:13;;;;;;;17.40;14.27;;;;;;;33.69;35.75;101862.72;4962681;28;20031;-85
2022/09/11 10:43:59;;;;;;;14.15;11.93;;;;;;;33.53;33.96;101865.84;4968577;28;20488;-84
2022/09/11 10:46:33;;;;;;;13.55;12.13;;;;;;;33.93;32.30;101864.06;4965516;28;20058;-85
2022/09/11 10:49:02;;;;;;;14.80;13.20;;;;;;;34.13;33.76;101866.06;4965003;28;20035;-85
2022/09/11 10:51:30;;;;;;;15.75;13.20;;;;;;;34.71;31.52;101860.81;4964723;28;20031;-83
2022/09/11 10:53:58;;;;;;;13.50;11.98;;;;;;;34.41;33.62;101860.38;4966566;28;20075;-85
2022/09/11 10:56:25;;;;;;;13.82;12.40;;;;;;;34.46;32.77;101860.59;4965228;28;20042;-82
2022/09/11 10:59:00;;;;;;;13.93;12.55;;;;;;;34.69;33.28;101854.66;4967378;28;20030;-88
2022/09/11 11:01:26;;;;;;;14.95;13.32;;;;;;;34.84;30.58;101855.28;4952721;28;20050;-86
2022/09/11 11:03:51;;;;;;;13.38;11.98;;;;;;;35.52;30.29;101852.19;4962446;28;20496;-87
2022/09/11 11:06:38;;;;;;;12.15;11.05;;;;;;;36.18;33.85;101867.63;4961034;28;20062;-84
2022/09/11 11:09:22;;;;;;;11.88;10.68;;;;;;;33.66;35.38;101863.13;4966576;28;20097;-84
2022/09/11 11:12:10;;;;;;;13.90;11.32;;;;;;;30.69;39.87;101862.41;4966521;28;20034;-83
2022/09/11 11:15:04;;;;;;;12.95;11.52;;;;;;;28.16;43.14;101855.03;4971461;28;20035;-83
2022/09/11 11:17:49;;;;;;;13.82;12.07;;;;;;;26.41;46.27;101864.44;4970523;28;20034;-83